Time;durP1;ratioP1;P1;durP2;ratioP2;P2;SDS_P1;SDS_P2;PMS_P1;PMS_P2;Temp;Humidity;BMP_temperature;BMP_pressure;BME280_temperature;BME280_humidity;BME280_pressure;Samples;Min_cycle;Max_cycle;Signal;HPM_P1;HPM_P2
2023/10/29 00:00:09;;;;;;;;;;;11.30;99.90;;;;;;4864178;29;19938;-88
2023/10/29 00:02:35;;;;;;;;;;;11.30;99.90;;;;;;4862659;29;19928;-88
2023/10/29 00:05:00;;;;;;;;;;;11.30;99.90;;;;;;4861996;29;19980;-87
2023/10/29 00:07:26;;;;;;;;;;;11.30;99.90;;;;;;4863091;29;19944;-87
2023/10/29 00:09:51;;;;;;;;;;;11.30;99.90;;;;;;4862117;29;19984;-88
2023/10/29 00:12:17;;;;;;;;;;;11.30;99.90;;;;;;4862448;29;19980;-88
2023/10/29 00:14:42;;;;;;;;;;;11.30;99.90;;;;;;4861696;29;19928;-87
2023/10/29 00:17:08;;;;;;;;;;;11.30;99.90;;;;;;4862544;29;19935;-87
2023/10/29 00:19:34;;;;;;;;;;;11.30;99.90;;;;;;4862804;29;19984;-87
2023/10/29 00:22:00;;;;;;;;;;;11.40;99.90;;;;;;4861853;29;19936;-87
2023/10/29 00:24:25;;;;;;;;;;;11.30;99.90;;;;;;4864054;29;19928;-87
2023/10/29 00:26:51;;;;;;;;;;;11.40;99.90;;;;;;4863909;29;20392;-87
2023/10/29 00:29:16;;;;;;;;;;;11.40;99.90;;;;;;4862030;29;20024;-87
2023/10/29 00:31:42;;;;;;;;;;;11.40;99.90;;;;;;4861334;29;19932;-86
2023/10/29 00:34:07;;;;;;;;;;;11.40;99.90;;;;;;4862719;29;20027;-87
2023/10/29 00:36:33;;;;;;;;;;;11.50;99.90;;;;;;4862420;29;19928;-87
2023/10/29 00:38:59;;;;;;;;;;;11.50;99.90;;;;;;4861219;29;20011;-87
2023/10/29 00:41:25;;;;;;;;;;;11.50;99.90;;;;;;4862490;29;19935;-87
2023/10/29 00:43:51;;;;;;;;;;;11.50;99.90;;;;;;4845790;29;19932;-85
2023/10/29 00:46:16;;;;;;;;;;;11.50;99.90;;;;;;4846775;29;19928;-85
2023/10/29 00:48:42;;;;;;;;;;;11.60;99.90;;;;;;4862498;29;19979;-88
2023/10/29 00:51:08;;;;;;;;;;;11.60;99.90;;;;;;4845943;29;20419;-86
2023/10/29 00:53:33;;;;;;;;;;;11.60;99.90;;;;;;4861965;29;19928;-87
2023/10/29 00:55:59;;;;;;;;;;;11.60;99.90;;;;;;4861182;29;20369;-87
2023/10/29 00:58:26;;;;;;;;;;;11.60;99.90;;;;;;4862118;29;19935;-87
2023/10/29 01:00:51;;;;;;;;;;;11.70;99.90;;;;;;4862849;29;20049;-87
2023/10/29 01:03:18;;;;;;;;;;;11.70;99.90;;;;;;4861575;29;20413;-86
2023/10/29 01:05:44;;;;;;;;;;;11.70;99.90;;;;;;4845891;29;20357;-87
2023/10/29 01:08:10;;;;;;;;;;;11.70;99.90;;;;;;4862020;29;20080;-87
2023/10/29 01:10:36;;;;;;;;;;;11.70;99.90;;;;;;4862391;29;20376;-87
2023/10/29 01:13:01;;;;;;;;;;;11.70;99.90;;;;;;4861222;29;19935;-87
2023/10/29 01:15:27;;;;;;;;;;;11.70;99.90;;;;;;4861274;29;19932;-86
2023/10/29 01:17:52;;;;;;;;;;;11.70;99.90;;;;;;4860403;29;19928;-88
2023/10/29 01:20:18;;;;;;;;;;;11.70;99.90;;;;;;4846230;29;19932;-88
2023/10/29 01:22:44;;;;;;;;;;;11.80;99.90;;;;;;4860486;29;19932;-87
2023/10/29 01:25:10;;;;;;;;;;;11.80;99.90;;;;;;4862562;29;19984;-85
2023/10/29 01:27:36;;;;;;;;;;;11.80;99.90;;;;;;4860816;29;19929;-85
2023/10/29 01:30:02;;;;;;;;;;;11.90;99.90;;;;;;4845364;29;19935;-86
2023/10/29 01:32:28;;;;;;;;;;;11.90;99.90;;;;;;4862346;29;20039;-87
2023/10/29 01:34:54;;;;;;;;;;;11.90;99.90;;;;;;4860113;29;20372;-86
2023/10/29 01:37:20;;;;;;;;;;;11.90;99.90;;;;;;4860413;29;19928;-86
2023/10/29 01:39:45;;;;;;;;;;;11.90;99.90;;;;;;4860680;29;19928;-86
2023/10/29 01:42:11;;;;;;;;;;;11.90;99.90;;;;;;4860484;29;19985;-86
2023/10/29 01:44:36;;;;;;;;;;;11.90;99.90;;;;;;4860601;29;19928;-86
2023/10/29 01:47:02;;;;;;;;;;;12.00;99.90;;;;;;4860564;29;20019;-86
2023/10/29 01:49:28;;;;;;;;;;;12.00;99.90;;;;;;4860676;29;20364;-86
2023/10/29 01:51:54;;;;;;;;;;;12.00;99.90;;;;;;4860772;29;20448;-86
2023/10/29 01:54:20;;;;;;;;;;;12.00;99.90;;;;;;4860438;29;19935;-85
2023/10/29 01:56:46;;;;;;;;;;;12.00;99.90;;;;;;4860427;29;19931;-85
2023/10/29 01:59:13;;;;;;;;;;;12.00;99.90;;;;;;4861225;29;19935;-86
2023/10/29 02:01:39;;;;;;;;;;;12.00;99.90;;;;;;4861211;29;19928;-86
2023/10/29 02:04:07;;;;;;;;;;;12.00;99.90;;;;;;4860419;29;19935;-85
2023/10/29 02:06:38;;;;;;;;;;;12.00;99.90;;;;;;4860624;29;19983;-88
2023/10/29 02:09:03;;;;;;;;;;;12.10;99.90;;;;;;4860425;29;19974;-87
2023/10/29 02:11:29;;;;;;;;;;;12.10;99.90;;;;;;4860348;29;19928;-85
2023/10/29 02:13:54;;;;;;;;;;;12.10;99.90;;;;;;4845232;29;19928;-85
2023/10/29 02:16:20;;;;;;;;;;;12.10;99.90;;;;;;4863605;29;19996;-84
2023/10/29 02:18:46;;;;;;;;;;;12.10;99.90;;;;;;4864946;29;19928;-85
2023/10/29 02:21:11;;;;;;;;;;;12.10;99.90;;;;;;4864970;29;19935;-86
2023/10/29 02:23:37;;;;;;;;;;;12.10;99.90;;;;;;4865817;29;19953;-85
2023/10/29 02:26:02;;;;;;;;;;;12.00;99.90;;;;;;4865619;29;19932;-86
2023/10/29 02:28:28;;;;;;;;;;;12.00;99.90;;;;;;4848634;29;19950;-86
2023/10/29 02:30:54;;;;;;;;;;;12.10;99.90;;;;;;4849246;29;19928;-87
2023/10/29 02:33:19;;;;;;;;;;;12.10;99.90;;;;;;4848273;29;19928;-85
2023/10/29 02:35:46;;;;;;;;;;;12.10;99.90;;;;;;4864002;29;19928;-85
2023/10/29 02:38:11;;;;;;;;;;;12.10;99.90;;;;;;4848162;29;19928;-85
2023/10/29 02:40:37;;;;;;;;;;;12.10;99.90;;;;;;4863623;29;19939;-86
2023/10/29 02:43:04;;;;;;;;;;;12.10;99.90;;;;;;4864340;29;20019;-84
2023/10/29 02:45:30;;;;;;;;;;;12.10;99.90;;;;;;4863545;29;20364;-86
2023/10/29 02:47:55;;;;;;;;;;;12.10;99.90;;;;;;4864298;29;19928;-86
2023/10/29 02:50:21;;;;;;;;;;;12.10;99.90;;;;;;4848032;29;19979;-85
2023/10/29 02:52:46;;;;;;;;;;;12.10;99.90;;;;;;4863619;29;19935;-86
2023/10/29 02:55:12;;;;;;;;;;;12.10;99.90;;;;;;4863468;29;19974;-86
2023/10/29 02:57:37;;;;;;;;;;;12.10;99.90;;;;;;4863177;29;19954;-85
2023/10/29 03:00:04;;;;;;;;;;;12.10;99.90;;;;;;4863647;29;20015;-85
2023/10/29 03:02:29;;;;;;;;;;;12.10;99.90;;;;;;4863527;29;19983;-85
2023/10/29 03:04:55;;;;;;;;;;;12.20;99.90;;;;;;4863079;29;20023;-84
2023/10/29 03:07:20;;;;;;;;;;;12.20;99.90;;;;;;4864127;29;19928;-86
2023/10/29 03:09:46;;;;;;;;;;;12.20;99.90;;;;;;4863587;29;19935;-85
2023/10/29 03:12:12;;;;;;;;;;;12.30;99.90;;;;;;4863561;29;19928;-89
2023/10/29 03:14:37;;;;;;;;;;;12.30;99.90;;;;;;4833316;29;20284;-85
2023/10/29 03:17:03;;;;;;;;;;;12.30;99.90;;;;;;4863068;29;19928;-85
2023/10/29 03:19:29;;;;;;;;;;;12.40;99.90;;;;;;4864082;29;19934;-85
2023/10/29 03:21:54;;;;;;;;;;;12.40;99.90;;;;;;4862847;29;19935;-85
2023/10/29 03:24:20;;;;;;;;;;;12.40;99.90;;;;;;4862442;29;20313;-84
2023/10/29 03:26:45;;;;;;;;;;;12.50;99.90;;;;;;4862691;29;19957;-87
2023/10/29 03:29:11;;;;;;;;;;;12.50;99.90;;;;;;4863707;29;19929;-85
2023/10/29 03:31:38;;;;;;;;;;;12.50;99.90;;;;;;4863793;29;19928;-85
2023/10/29 03:34:04;;;;;;;;;;;12.50;99.90;;;;;;4847947;29;19998;-85
2023/10/29 03:36:30;;;;;;;;;;;12.50;99.90;;;;;;4862600;29;20019;-85
2023/10/29 03:38:55;;;;;;;;;;;12.60;99.90;;;;;;4863780;29;20356;-87
2023/10/29 03:41:22;;;;;;;;;;;12.50;99.90;;;;;;4863668;29;19977;-85
2023/10/29 03:43:48;;;;;;;;;;;12.50;99.90;;;;;;4863598;29;20280;-85
2023/10/29 03:46:13;;;;;;;;;;;12.50;99.90;;;;;;4862767;29;20265;-85
2023/10/29 03:48:44;;;;;;;;;;;12.50;99.90;;;;;;4862989;29;19931;-85
2023/10/29 03:51:10;;;;;;;;;;;12.50;99.90;;;;;;4863519;29;19928;-85
2023/10/29 03:53:36;;;;;;;;;;;12.60;99.90;;;;;;4862317;29;20364;-85
2023/10/29 03:56:02;;;;;;;;;;;12.60;99.90;;;;;;4862621;29;19935;-85
2023/10/29 03:58:27;;;;;;;;;;;12.60;99.90;;;;;;4862162;29;20393;-85
2023/10/29 04:00:53;;;;;;;;;;;12.60;99.90;;;;;;4862386;29;20387;-86
2023/10/29 04:03:18;;;;;;;;;;;12.70;99.90;;;;;;4862519;29;19928;-85
2023/10/29 04:05:44;;;;;;;;;;;12.70;99.90;;;;;;4862330;29;19928;-84
2023/10/29 04:08:09;;;;;;;;;;;12.70;99.90;;;;;;4846619;29;20372;-84
2023/10/29 04:10:35;;;;;;;;;;;12.70;99.90;;;;;;4862215;29;19934;-85
2023/10/29 04:13:01;;;;;;;;;;;12.70;99.90;;;;;;4862492;29;20333;-86
2023/10/29 04:15:26;;;;;;;;;;;12.60;99.90;;;;;;4846744;29;19934;-85
2023/10/29 04:17:52;;;;;;;;;;;12.60;99.90;;;;;;4863042;29;19928;-85
2023/10/29 04:20:17;;;;;;;;;;;12.60;99.90;;;;;;4862243;29;19980;-86
2023/10/29 04:22:43;;;;;;;;;;;12.60;99.90;;;;;;4862512;29;19928;-84
2023/10/29 04:25:09;;;;;;;;;;;12.60;99.90;;;;;;4861630;29;20296;-84
2023/10/29 04:27:34;;;;;;;;;;;12.60;99.90;;;;;;4862733;29;19975;-86
2023/10/29 04:30:00;;;;;;;;;;;12.60;99.90;;;;;;4861850;29;19928;-85
2023/10/29 04:32:25;;;;;;;;;;;12.60;99.90;;;;;;4862517;29;19929;-84
2023/10/29 04:34:51;;;;;;;;;;;12.60;99.90;;;;;;4861931;29;20500;-88
2023/10/29 04:37:17;;;;;;;;;;;12.70;99.90;;;;;;4860915;29;19928;-85
2023/10/29 04:39:44;;;;;;;;;;;12.70;99.90;;;;;;4861796;29;19951;-88
2023/10/29 04:42:09;;;;;;;;;;;12.70;99.90;;;;;;4846438;29;19935;-86
2023/10/29 04:44:35;;;;;;;;;;;12.70;99.90;;;;;;4861688;29;20010;-86
2023/10/29 04:47:03;;;;;;;;;;;12.60;99.90;;;;;;4861653;29;20269;-85
2023/10/29 04:49:29;;;;;;;;;;;12.60;99.90;;;;;;4863015;29;19992;-85
2023/10/29 04:51:55;;;;;;;;;;;12.60;99.90;;;;;;4864336;29;19928;-88
2023/10/29 04:54:20;;;;;;;;;;;12.60;99.90;;;;;;4864018;29;19984;-86
2023/10/29 04:56:46;;;;;;;;;;;12.70;99.90;;;;;;4861503;29;19928;-85
2023/10/29 04:59:13;;;;;;;;;;;12.70;99.90;;;;;;4862286;29;20291;-85
2023/10/29 05:01:38;;;;;;;;;;;12.70;99.90;;;;;;4861232;29;19939;-86
2023/10/29 05:04:04;;;;;;;;;;;12.70;99.90;;;;;;4860952;29;19932;-84
2023/10/29 05:06:30;;;;;;;;;;;12.70;99.90;;;;;;4861279;29;19928;-87
2023/10/29 05:08:56;;;;;;;;;;;12.70;99.90;;;;;;4861391;29;19928;-87
2023/10/29 05:11:22;;;;;;;;;;;12.70;99.90;;;;;;4861902;29;20065;-85
2023/10/29 05:13:47;;;;;;;;;;;12.80;99.90;;;;;;4861555;29;19932;-86
2023/10/29 05:16:13;;;;;;;;;;;12.80;99.90;;;;;;4861478;29;19928;-86
2023/10/29 05:18:39;;;;;;;;;;;12.80;99.90;;;;;;4861538;29;19972;-85
2023/10/29 05:21:04;;;;;;;;;;;12.80;99.90;;;;;;4861428;29;19928;-86
2023/10/29 05:23:30;;;;;;;;;;;12.70;99.90;;;;;;4861131;29;19928;-87
2023/10/29 05:25:56;;;;;;;;;;;12.70;99.90;;;;;;4862210;29;19944;-86
2023/10/29 05:28:21;;;;;;;;;;;12.70;99.90;;;;;;4862559;29;19935;-85
2023/10/29 05:30:47;;;;;;;;;;;12.70;99.90;;;;;;4862420;29;20387;-88
2023/10/29 05:33:12;;;;;;;;;;;12.70;99.90;;;;;;4861689;29;19932;-87
2023/10/29 05:35:38;;;;;;;;;;;12.70;99.90;;;;;;4861712;29;19928;-86
2023/10/29 05:38:04;;;;;;;;;;;12.70;99.90;;;;;;4860510;29;19929;-87
2023/10/29 05:40:29;;;;;;;;;;;12.70;99.90;;;;;;4860817;29;20391;-86
2023/10/29 05:42:55;;;;;;;;;;;12.80;99.90;;;;;;4860424;29;20007;-86
2023/10/29 05:45:20;;;;;;;;;;;12.80;99.90;;;;;;4861771;29;20032;-85
2023/10/29 05:47:46;;;;;;;;;;;12.80;99.90;;;;;;4860661;29;20279;-86
2023/10/29 05:50:12;;;;;;;;;;;12.80;99.90;;;;;;4860544;29;19979;-84
2023/10/29 05:52:37;;;;;;;;;;;12.80;99.90;;;;;;4861740;29;19939;-86
2023/10/29 05:55:04;;;;;;;;;;;12.80;99.90;;;;;;4861342;29;20391;-86
2023/10/29 05:57:29;;;;;;;;;;;12.90;99.90;;;;;;4861174;29;19936;-87
2023/10/29 05:59:55;;;;;;;;;;;12.90;99.90;;;;;;4861524;29;19932;-87
2023/10/29 06:02:21;;;;;;;;;;;12.90;99.90;;;;;;4860372;29;19929;-85
2023/10/29 06:04:46;;;;;;;;;;;12.90;99.90;;;;;;4860481;29;19928;-87
2023/10/29 06:07:13;;;;;;;;;;;12.90;99.90;;;;;;4860474;29;19935;-86
2023/10/29 06:09:39;;;;;;;;;;;12.90;99.90;;;;;;4844934;29;20380;-85
2023/10/29 06:12:05;;;;;;;;;;;12.90;99.90;;;;;;4846009;29;19951;-86
2023/10/29 06:14:31;;;;;;;;;;;12.90;99.90;;;;;;4860718;29;20372;-85
2023/10/29 06:16:57;;;;;;;;;;;12.90;99.90;;;;;;4844889;29;20441;-86
2023/10/29 06:19:23;;;;;;;;;;;12.90;99.90;;;;;;4845054;29;19928;-87
2023/10/29 06:21:49;;;;;;;;;;;12.90;99.90;;;;;;4861358;29;19928;-85
2023/10/29 06:24:14;;;;;;;;;;;12.90;99.90;;;;;;4875504;29;19932;-87
2023/10/29 06:26:40;;;;;;;;;;;12.80;99.90;;;;;;4860275;29;20357;-86
2023/10/29 06:29:06;;;;;;;;;;;12.80;99.90;;;;;;4861092;29;19935;-85
2023/10/29 06:31:33;;;;;;;;;;;12.80;99.90;;;;;;4860269;29;19928;-86
2023/10/29 06:33:59;;;;;;;;;;;12.80;99.90;;;;;;4860282;29;19928;-86
2023/10/29 06:36:25;;;;;;;;;;;12.80;99.90;;;;;;4861068;29;20412;-85
2023/10/29 06:38:50;;;;;;;;;;;12.80;99.90;;;;;;4861167;29;20019;-86
2023/10/29 06:41:16;;;;;;;;;;;12.80;99.90;;;;;;4861038;29;20080;-87
2023/10/29 06:43:41;;;;;;;;;;;12.80;99.90;;;;;;4861093;29;19936;-86
2023/10/29 06:46:07;;;;;;;;;;;12.70;99.90;;;;;;4859852;29;19932;-86
2023/10/29 06:48:33;;;;;;;;;;;12.70;99.90;;;;;;4860393;29;20339;-86
2023/10/29 06:50:58;;;;;;;;;;;12.70;99.90;;;;;;4861097;29;19935;-86
2023/10/29 06:53:24;;;;;;;;;;;12.70;99.90;;;;;;4845037;29;19979;-87
2023/10/29 06:55:49;;;;;;;;;;;12.60;99.90;;;;;;4861039;29;19928;-87
2023/10/29 06:58:15;;;;;;;;;;;12.70;99.90;;;;;;4844460;29;20030;-85
2023/10/29 07:00:40;;;;;;;;;;;12.80;99.90;;;;;;4861402;29;19977;-84
2023/10/29 07:03:07;;;;;;;;;;;12.80;99.90;;;;;;4864217;29;19982;-88
2023/10/29 07:05:33;;;;;;;;;;;12.80;99.90;;;;;;4863081;29;19997;-87
2023/10/29 07:08:00;;;;;;;;;;;12.80;99.90;;;;;;4864033;29;20408;-86
2023/10/29 07:10:26;;;;;;;;;;;12.80;99.90;;;;;;4863256;29;19932;-86
2023/10/29 07:12:53;;;;;;;;;;;12.80;99.90;;;;;;4864130;29;19934;-86
2023/10/29 07:15:19;;;;;;;;;;;12.70;99.90;;;;;;4864560;29;20026;-86
2023/10/29 07:17:45;;;;;;;;;;;12.70;99.90;;;;;;4863903;29;20459;-86
2023/10/29 07:20:10;;;;;;;;;;;12.70;99.90;;;;;;4864882;29;19980;-88
2023/10/29 07:22:36;;;;;;;;;;;12.70;99.90;;;;;;4865018;29;19928;-86
2023/10/29 07:25:02;;;;;;;;;;;12.70;99.90;;;;;;4862498;29;19928;-86
2023/10/29 07:27:28;;;;;;;;;;;12.70;99.90;;;;;;4863485;29;19932;-87
2023/10/29 07:29:53;;;;;;;;;;;12.70;99.90;;;;;;4862881;29;19935;-86
2023/10/29 07:32:19;;;;;;;;;;;12.70;99.90;;;;;;4863848;29;20015;-86
2023/10/29 07:34:44;;;;;;;;;;;12.70;99.90;;;;;;4847674;29;19928;-86
2023/10/29 07:37:12;;;;;;;;;;;12.70;99.90;;;;;;4864448;29;19984;-85
2023/10/29 07:39:37;;;;;;;;;;;12.70;99.90;;;;;;4863005;29;20027;-87
2023/10/29 07:42:03;;;;;;;;;;;12.70;99.90;;;;;;4862712;29;19975;-86
2023/10/29 07:44:29;;;;;;;;;;;12.80;99.90;;;;;;4863596;29;20344;-85
2023/10/29 07:46:54;;;;;;;;;;;12.80;99.90;;;;;;4862578;29;19936;-87
2023/10/29 07:49:20;;;;;;;;;;;12.80;99.90;;;;;;4862300;29;19951;-86
2023/10/29 07:51:47;;;;;;;;;;;12.80;99.90;;;;;;4862638;29;19935;-87
2023/10/29 07:54:13;;;;;;;;;;;12.80;99.90;;;;;;4863874;29;19936;-86
2023/10/29 07:56:39;;;;;;;;;;;12.80;99.90;;;;;;4864152;29;19929;-85
2023/10/29 07:59:04;;;;;;;;;;;12.80;99.90;;;;;;4862529;29;19928;-85
2023/10/29 08:01:30;;;;;;;;;;;12.80;99.90;;;;;;4862083;29;19928;-86
2023/10/29 08:03:57;;;;;;;;;;;12.80;99.90;;;;;;4863245;29;19986;-86
2023/10/29 08:06:22;;;;;;;;;;;12.80;99.90;;;;;;4862503;29;19940;-86
2023/10/29 08:08:48;;;;;;;;;;;12.80;99.90;;;;;;4863140;29;20296;-87
2023/10/29 08:11:18;;;;;;;;;;;12.80;99.90;;;;;;4862113;29;20280;-84
2023/10/29 08:13:43;;;;;;;;;;;12.80;99.90;;;;;;4862544;29;19932;-86
2023/10/29 08:16:09;;;;;;;;;;;12.80;99.90;;;;;;4862061;29;19928;-87
2023/10/29 08:18:34;;;;;;;;;;;12.80;99.90;;;;;;4861660;29;19928;-86
2023/10/29 08:21:00;;;;;;;;;;;12.90;99.90;;;;;;4863389;29;20023;-87
2023/10/29 08:23:26;;;;;;;;;;;12.90;99.90;;;;;;4862741;29;19936;-87
2023/10/29 08:25:52;;;;;;;;;;;12.90;99.90;;;;;;4861820;29;19965;-87
2023/10/29 08:28:19;;;;;;;;;;;13.00;99.90;;;;;;4861559;29;19932;-87
2023/10/29 08:30:47;;;;;;;;;;;13.10;99.90;;;;;;4861959;29;19999;-85
2023/10/29 08:33:13;;;;;;;;;;;13.10;99.90;;;;;;4863219;29;19984;-87
2023/10/29 08:35:43;;;;;;;;;;;13.10;99.90;;;;;;4862651;29;20341;-86
2023/10/29 08:38:08;;;;;;;;;;;13.10;99.90;;;;;;4861372;29;20027;-87
2023/10/29 08:40:34;;;;;;;;;;;13.10;99.90;;;;;;4861339;29;19970;-88
2023/10/29 08:43:03;;;;;;;;;;;13.10;99.90;;;;;;4862797;29;19957;-87
2023/10/29 08:45:28;;;;;;;;;;;13.20;99.90;;;;;;4861546;29;19932;-87
2023/10/29 08:47:54;;;;;;;;;;;13.30;99.90;;;;;;4862463;29;19975;-87
2023/10/29 08:50:20;;;;;;;;;;;13.30;99.90;;;;;;4862417;29;19928;-86
2023/10/29 08:52:45;;;;;;;;;;;13.40;99.90;;;;;;4862324;29;19951;-87
2023/10/29 08:55:11;;;;;;;;;;;13.50;99.90;;;;;;4862221;29;19935;-86
2023/10/29 08:57:37;;;;;;;;;;;13.60;99.90;;;;;;4861205;29;19960;-85
2023/10/29 09:00:03;;;;;;;;;;;13.60;99.90;;;;;;4862209;29;19967;-87
2023/10/29 09:02:28;;;;;;;;;;;13.60;99.90;;;;;;4862128;29;19991;-87
2023/10/29 09:04:57;;;;;;;;;;;13.70;99.90;;;;;;4862677;29;19928;-86
2023/10/29 09:07:25;;;;;;;;;;;13.80;99.90;;;;;;4861989;29;19987;-86
2023/10/29 09:09:52;;;;;;;;;;;13.80;99.90;;;;;;4861623;29;19992;-83
2023/10/29 09:12:18;;;;;;;;;;;13.80;99.90;;;;;;4860830;29;19971;-87
2023/10/29 09:14:43;;;;;;;;;;;13.80;99.90;;;;;;4862760;29;19967;-86
2023/10/29 09:17:10;;;;;;;;;;;13.80;99.90;;;;;;4862386;29;20309;-87
2023/10/29 09:19:35;;;;;;;;;;;13.90;99.90;;;;;;4861163;29;19928;-86
2023/10/29 09:22:01;;;;;;;;;;;14.00;99.90;;;;;;4845508;29;20383;-87
2023/10/29 09:24:26;;;;;;;;;;;14.20;99.90;;;;;;4844450;29;19932;-88
2023/10/29 09:26:53;;;;;;;;;;;14.20;99.90;;;;;;4846117;29;19961;-86
2023/10/29 09:29:19;;;;;;;;;;;14.20;99.90;;;;;;4862204;29;19987;-85
2023/10/29 09:31:45;;;;;;;;;;;14.10;99.90;;;;;;4861637;29;19928;-85
2023/10/29 09:34:11;;;;;;;;;;;14.10;99.90;;;;;;4861442;29;20311;-87
2023/10/29 09:36:37;;;;;;;;;;;14.30;99.90;;;;;;4860697;29;19928;-87
2023/10/29 09:39:03;;;;;;;;;;;14.30;99.90;;;;;;4862240;29;19976;-85
2023/10/29 09:41:29;;;;;;;;;;;14.30;99.90;;;;;;4860534;29;20027;-87
2023/10/29 09:43:55;;;;;;;;;;;14.40;99.90;;;;;;4860703;29;19935;-86
2023/10/29 09:46:21;;;;;;;;;;;14.50;99.90;;;;;;4861599;29;19936;-86
2023/10/29 09:48:48;;;;;;;;;;;14.50;99.90;;;;;;4863227;29;19929;-87
2023/10/29 09:51:14;;;;;;;;;;;14.70;99.90;;;;;;4861261;29;20342;-86
2023/10/29 09:53:39;;;;;;;;;;;14.70;99.90;;;;;;4860661;29;19929;-88
2023/10/29 09:56:07;;;;;;;;;;;14.70;99.90;;;;;;4860657;29;19936;-84
2023/10/29 09:58:34;;;;;;;;;;;14.70;99.90;;;;;;4861053;29;19928;-88
2023/10/29 10:01:01;;;;;;;;;;;14.50;99.90;;;;;;4861456;29;19928;-86
2023/10/29 10:03:27;;;;;;;;;;;14.30;99.90;;;;;;4860042;29;20380;-86
2023/10/29 10:05:52;;;;;;;;;;;14.20;99.90;;;;;;4860221;29;19928;-88
2023/10/29 10:08:25;;;;;;;;;;;14.10;99.90;;;;;;4860744;29;19932;-88
2023/10/29 10:10:51;;;;;;;;;;;14.00;99.90;;;;;;4860500;29;20443;-87
2023/10/29 10:13:17;;;;;;;;;;;14.00;99.90;;;;;;4860447;29;20405;-88
2023/10/29 10:15:43;;;;;;;;;;;14.00;99.90;;;;;;4861280;29;19928;-87
2023/10/29 10:18:11;;;;;;;;;;;14.10;99.90;;;;;;4861311;29;19992;-88
2023/10/29 10:20:36;;;;;;;;;;;14.10;99.90;;;;;;4860381;29;19929;-86
2023/10/29 10:23:02;;;;;;;;;;;14.10;99.90;;;;;;4845032;29;19928;-87
2023/10/29 10:25:28;;;;;;;;;;;14.20;99.90;;;;;;4860314;29;20027;-86
2023/10/29 10:27:55;;;;;;;;;;;14.30;99.90;;;;;;4860095;29;19935;-86
2023/10/29 10:30:24;;;;;;;;;;;14.30;99.90;;;;;;4860823;29;19951;-87
2023/10/29 10:32:50;;;;;;;;;;;14.30;99.90;;;;;;4860002;29;20023;-88
2023/10/29 10:35:15;;;;;;;;;;;14.30;99.90;;;;;;4860349;29;20011;-88
2023/10/29 10:37:54;;;;;;;;;;;14.40;99.90;;;;;;4864381;29;20088;-88
2023/10/29 10:40:23;;;;;;;;;;;14.40;99.90;;;;;;4864174;29;19928;-87
2023/10/29 10:42:56;;;;;;;;;;;14.50;99.90;;;;;;4866020;29;20023;-88
2023/10/29 10:45:26;;;;;;;;;;;14.50;99.90;;;;;;4864955;29;20383;-88
2023/10/29 10:47:58;;;;;;;;;;;14.60;99.90;;;;;;4864824;29;19928;-86
2023/10/29 10:50:25;;;;;;;;;;;14.60;99.90;;;;;;4863797;29;19984;-88
2023/10/29 10:52:51;;;;;;;;;;;14.60;99.90;;;;;;4864562;29;20125;-87
2023/10/29 10:55:20;;;;;;;;;;;14.60;99.90;;;;;;4864165;29;19942;-87
2023/10/29 10:57:47;;;;;;;;;;;14.60;99.90;;;;;;4865549;29;19935;-86
2023/10/29 11:00:13;;;;;;;;;;;14.50;99.90;;;;;;4864774;29;19935;-87
2023/10/29 11:02:39;;;;;;;;;;;14.50;99.90;;;;;;4864380;29;19932;-86
2023/10/29 11:05:07;;;;;;;;;;;14.50;99.90;;;;;;4865256;29;19928;-86
2023/10/29 11:07:34;;;;;;;;;;;14.50;99.90;;;;;;4864434;29;19928;-87
2023/10/29 11:09:59;;;;;;;;;;;14.50;99.90;;;;;;4863408;29;19928;-86
2023/10/29 11:12:26;;;;;;;;;;;14.50;99.90;;;;;;4862973;29;19935;-86
2023/10/29 11:15:10;;;;;;;;;;;14.70;99.90;;;;;;4862902;29;19928;-88
2023/10/29 11:17:54;;;;;;;;;;;14.70;99.90;;;;;;4863985;29;19928;-87
2023/10/29 11:20:49;;;;;;;;;;;14.80;99.90;;;;;;4847373;29;20060;-87
2023/10/29 11:23:16;;;;;;;;;;;15.00;99.90;;;;;;4863331;29;20050;-85
2023/10/29 11:25:41;;;;;;;;;;;15.00;99.90;;;;;;4863857;29;19935;-86
2023/10/29 11:28:28;;;;;;;;;;;15.10;99.90;;;;;;4862985;29;20018;-86
2023/10/29 11:31:13;;;;;;;;;;;15.10;99.90;;;;;;4863804;29;20027;-88
2023/10/29 11:33:39;;;;;;;;;;;15.20;99.90;;;;;;4862580;29;19932;-86
2023/10/29 11:36:23;;;;;;;;;;;15.20;99.90;;;;;;4847500;29;19935;-87
2023/10/29 11:38:49;;;;;;;;;;;15.20;99.90;;;;;;4863726;29;19932;-88
2023/10/29 11:41:31;;;;;;;;;;;15.20;99.90;;;;;;4862462;29;20368;-87
2023/10/29 11:44:15;;;;;;;;;;;15.10;99.90;;;;;;4863597;29;19971;-88
2023/10/29 11:47:02;;;;;;;;;;;15.00;99.90;;;;;;4862363;29;19928;-88
2023/10/29 11:49:49;;;;;;;;;;;14.90;99.90;;;;;;4863505;29;19939;-87
2023/10/29 11:52:14;;;;;;;;;;;14.90;99.90;;;;;;4849805;29;20071;-88
2023/10/29 11:54:40;;;;;;;;;;;14.80;99.90;;;;;;4862731;29;20026;-87
2023/10/29 11:57:06;;;;;;;;;;;14.80;99.90;;;;;;4862114;29;20399;-86
2023/10/29 11:59:32;;;;;;;;;;;14.80;99.90;;;;;;4863114;29;19928;-87
2023/10/29 12:01:57;;;;;;;;;;;14.80;99.90;;;;;;4863543;29;20028;-88
2023/10/29 12:04:30;;;;;;;;;;;14.80;99.90;;;;;;4863995;29;19928;-88
2023/10/29 12:06:56;;;;;;;;;;;14.80;99.90;;;;;;4863230;29;19929;-87
2023/10/29 12:09:23;;;;;;;;;;;14.80;99.90;;;;;;4863175;29;19928;-86
2023/10/29 12:11:49;;;;;;;;;;;14.80;99.90;;;;;;4863794;29;19955;-87
2023/10/29 12:14:15;;;;;;;;;;;14.70;99.90;;;;;;4862027;29;19928;-87
2023/10/29 12:16:41;;;;;;;;;;;14.70;99.90;;;;;;4865848;29;19928;-85
2023/10/29 12:19:07;;;;;;;;;;;14.60;99.90;;;;;;4863940;29;20390;-88
2023/10/29 12:21:33;;;;;;;;;;;14.60;99.90;;;;;;4861891;29;20027;-88
2023/10/29 12:24:00;;;;;;;;;;;14.60;99.90;;;;;;4877087;29;19928;-85
2023/10/29 12:26:27;;;;;;;;;;;14.50;99.90;;;;;;4862901;29;19928;-87
2023/10/29 12:28:53;;;;;;;;;;;14.50;99.90;;;;;;4861884;29;19935;-86
2023/10/29 12:31:26;;;;;;;;;;;14.50;99.90;;;;;;4861676;29;20375;-86
2023/10/29 12:33:58;;;;;;;;;;;14.50;99.90;;;;;;4861840;29;19976;-87
2023/10/29 12:36:24;;;;;;;;;;;14.40;99.90;;;;;;4861714;29;19928;-85
2023/10/29 12:38:50;;;;;;;;;;;14.30;99.90;;;;;;4862631;29;19935;-88
2023/10/29 12:41:16;;;;;;;;;;;14.40;99.90;;;;;;4861653;29;19983;-85
2023/10/29 12:43:43;;;;;;;;;;;14.40;99.90;;;;;;4861643;29;19928;-89
2023/10/29 12:46:09;;;;;;;;;;;14.40;99.90;;;;;;4861326;29;19980;-89
2023/10/29 12:48:54;;;;;;;;;;;14.30;99.90;;;;;;4862445;29;19935;-87
2023/10/29 12:51:32;;;;;;;;;;;14.30;99.90;;;;;;4862454;29;19935;-87
2023/10/29 12:54:08;;;;;;;;;;;14.30;99.90;;;;;;4863157;29;19928;-86
2023/10/29 12:56:47;;;;;;;;;;;14.30;99.90;;;;;;4845977;29;19929;-86
2023/10/29 12:59:12;;;;;;;;;;;14.40;99.90;;;;;;4861715;29;19928;-86
2023/10/29 13:01:47;;;;;;;;;;;14.40;99.90;;;;;;4862057;29;19932;-88
2023/10/29 13:04:13;;;;;;;;;;;14.40;99.90;;;;;;4861334;29;19928;-88
2023/10/29 13:06:38;;;;;;;;;;;14.40;99.90;;;;;;4861167;29;20032;-86
2023/10/29 13:09:07;;;;;;;;;;;14.50;99.90;;;;;;4860986;29;19992;-88
2023/10/29 13:11:33;;;;;;;;;;;14.50;99.90;;;;;;4861101;29;19928;-86
2023/10/29 13:13:59;;;;;;;;;;;14.40;99.90;;;;;;4861773;29;19932;-87
2023/10/29 13:16:24;;;;;;;;;;;14.40;99.90;;;;;;4860913;29;19928;-86
2023/10/29 13:18:50;;;;;;;;;;;14.30;99.90;;;;;;4860635;29;20116;-86
2023/10/29 13:21:16;;;;;;;;;;;14.30;99.90;;;;;;4862937;29;20002;-86
2023/10/29 13:23:41;;;;;;;;;;;14.30;99.90;;;;;;4845273;29;20360;-87
2023/10/29 13:26:07;;;;;;;;;;;14.20;99.90;;;;;;4860778;29;20027;-88
2023/10/29 13:28:34;;;;;;;;;;;14.20;99.90;;;;;;4861027;29;19935;-86
2023/10/29 13:30:59;;;;;;;;;;;14.20;99.90;;;;;;4860972;29;19928;-87
2023/10/29 13:33:25;;;;;;;;;;;14.20;99.90;;;;;;4845808;29;19928;-87
2023/10/29 13:35:51;;;;;;;;;;;14.10;99.90;;;;;;4862488;29;19928;-87
2023/10/29 13:38:17;;;;;;;;;;;14.10;99.90;;;;;;4860665;29;19928;-87
2023/10/29 13:40:44;;;;;;;;;;;14.10;99.90;;;;;;4860801;29;19928;-88
2023/10/29 13:43:09;;;;;;;;;;;14.00;99.90;;;;;;4861486;29;19957;-87
2023/10/29 13:45:35;;;;;;;;;;;14.00;99.90;;;;;;4861574;29;19928;-89
2023/10/29 13:48:00;;;;;;;;;;;14.00;99.90;;;;;;4861466;29;19934;-87
2023/10/29 13:50:26;;;;;;;;;;;14.00;99.90;;;;;;4860397;29;20376;-88
2023/10/29 13:52:52;;;;;;;;;;;14.00;99.90;;;;;;4861367;29;19935;-88
2023/10/29 13:55:20;;;;;;;;;;;14.00;99.90;;;;;;4861559;29;19971;-85
2023/10/29 13:57:46;;;;;;;;;;;14.00;99.90;;;;;;4860663;29;20011;-85
2023/10/29 14:00:12;;;;;;;;;;;14.00;99.90;;;;;;4861498;29;19982;-88
2023/10/29 14:02:38;;;;;;;;;;;14.00;99.90;;;;;;4861787;29;19939;-85
2023/10/29 14:05:04;;;;;;;;;;;13.90;99.90;;;;;;4860296;29;19936;-87
2023/10/29 14:07:31;;;;;;;;;;;13.90;99.90;;;;;;4861408;29;19951;-87
2023/10/29 14:09:58;;;;;;;;;;;14.00;99.90;;;;;;4861485;29;19929;-88
2023/10/29 14:12:24;;;;;;;;;;;13.90;99.90;;;;;;4864033;29;20002;-86